createdAt,value
2023-05-11T03:29:42.176Z,5.53
2023-05-11T03:32:09.699Z,4.75
2023-05-11T03:34:36.900Z,6.40
2023-05-11T03:37:06.209Z,5.30
2023-05-11T03:39:34.561Z,6.63
2023-05-11T03:42:04.008Z,4.82
2023-05-11T03:44:32.684Z,4.95
2023-05-11T03:47:01.682Z,4.78
2023-05-11T03:49:29.386Z,6.20
2023-05-11T03:51:57.395Z,4.72
2023-05-11T03:54:24.637Z,4.93
2023-05-11T03:56:52.401Z,4.40
2023-05-11T03:59:19.893Z,4.68
2023-05-11T04:01:47.191Z,5.18
2023-05-11T04:04:14.449Z,4.63
2023-05-11T04:06:41.674Z,5.80
2023-05-11T04:09:08.843Z,4.43
2023-05-11T04:11:39.127Z,5.30
2023-05-11T04:14:06.418Z,5.30
2023-05-11T04:16:33.699Z,4.80
2023-05-11T04:19:02.017Z,4.38
2023-05-11T04:21:29.528Z,4.10
2023-05-11T04:23:56.852Z,5.95
2023-05-11T04:26:24.005Z,4.65
2023-05-11T04:28:51.336Z,4.93
2023-05-11T04:31:18.549Z,9.05
2023-05-11T04:33:45.842Z,4.80
2023-05-11T04:36:13.113Z,4.50
2023-05-11T04:38:40.304Z,4.53
2023-05-11T04:41:08.371Z,5.38
2023-05-11T04:43:35.908Z,4.90
2023-05-11T04:46:03.163Z,4.38
2023-05-11T04:48:30.689Z,4.80
2023-05-11T04:50:58.523Z,4.15
2023-05-11T04:53:25.703Z,7.75
2023-05-11T04:55:55.280Z,6.07
2023-05-11T04:58:22.428Z,6.07
2023-05-11T05:00:49.619Z,5.63
2023-05-11T05:03:16.821Z,5.15
2023-05-11T05:05:44.011Z,7.53
2023-05-11T05:08:11.173Z,7.28
2023-05-11T05:10:38.340Z,8.75
2023-05-11T05:13:05.562Z,7.80
2023-05-11T05:15:32.812Z,7.40
2023-05-11T05:18:00.163Z,13.82
2023-05-11T05:20:27.413Z,7.75
2023-05-11T05:22:55.267Z,6.65
2023-05-11T05:25:23.225Z,7.03
2023-05-11T05:27:50.486Z,11.35
2023-05-11T05:30:18.012Z,6.82
2023-05-11T05:32:45.480Z,7.15
2023-05-11T05:35:13.120Z,4.53
2023-05-11T05:37:40.554Z,4.97
2023-05-11T05:40:08.028Z,7.78
2023-05-11T05:42:35.179Z,6.05
2023-05-11T05:45:02.386Z,7.28
2023-05-11T05:47:29.587Z,5.78
2023-05-11T05:49:56.985Z,6.78
2023-05-11T05:52:24.190Z,6.07
2023-05-11T05:54:53.529Z,8.02
2023-05-11T05:57:21.065Z,5.72
2023-05-11T05:59:48.309Z,6.72
2023-05-11T06:02:15.583Z,8.20
2023-05-11T06:04:43.020Z,8.05
2023-05-11T06:07:10.291Z,9.15
2023-05-11T06:09:39.088Z,5.15
2023-05-11T06:12:06.664Z,5.88
2023-05-11T06:14:33.872Z,6.20
2023-05-11T06:17:01.059Z,5.80
2023-05-11T06:19:28.210Z,5.80
2023-05-11T06:21:55.769Z,6.05
2023-05-11T06:24:22.972Z,6.00
2023-05-11T06:26:50.177Z,6.82
2023-05-11T06:29:17.634Z,5.78
2023-05-11T06:31:44.824Z,6.45
2023-05-11T06:34:12.010Z,6.10
2023-05-11T06:36:39.205Z,7.85
2023-05-11T06:39:06.863Z,8.18
2023-05-11T06:41:34.058Z,11.23
2023-05-11T06:44:01.279Z,10.32
2023-05-11T06:46:28.543Z,8.23
2023-05-11T06:48:55.779Z,8.95
2023-05-11T06:51:24.042Z,9.90
2023-05-11T06:53:51.246Z,8.27
2023-05-11T06:56:18.435Z,10.43
2023-05-11T06:58:45.618Z,8.05
2023-05-11T07:01:12.900Z,7.68
2023-05-11T07:03:40.156Z,8.60
2023-05-11T07:06:07.410Z,9.50
2023-05-11T07:08:34.577Z,6.65
2023-05-11T07:11:01.800Z,6.63
2023-05-11T07:13:28.992Z,9.18
2023-05-11T07:15:57.802Z,10.60
2023-05-11T07:18:25.384Z,6.53
2023-05-11T07:20:52.584Z,7.90
2023-05-11T07:23:19.760Z,10.05
2023-05-11T07:25:46.914Z,8.65
2023-05-11T07:28:14.120Z,7.57
2023-05-11T07:30:41.517Z,6.80
2023-05-11T07:33:08.777Z,8.63
2023-05-11T07:35:36.221Z,7.40
2023-05-11T07:38:05.211Z,6.82
2023-05-11T07:40:32.401Z,9.43
2023-05-11T07:42:59.586Z,6.57
2023-05-11T07:45:26.734Z,7.15
2023-05-11T07:47:53.919Z,6.07
2023-05-11T07:50:23.943Z,6.95
2023-05-11T07:52:51.754Z,6.72
2023-05-11T07:55:20.502Z,8.00
2023-05-11T07:57:47.964Z,5.90
2023-05-11T08:00:15.524Z,6.78
2023-05-11T08:02:42.942Z,11.15
2023-05-11T08:05:10.312Z,6.97
2023-05-11T08:07:38.995Z,7.75
2023-05-11T08:10:08.666Z,5.05
2023-05-11T08:12:36.869Z,6.43
2023-05-11T08:15:04.517Z,8.60
2023-05-11T08:17:32.110Z,6.53
2023-05-11T08:19:59.326Z,7.38
2023-05-11T08:22:26.578Z,6.25
2023-05-11T08:24:53.781Z,6.43
2023-05-11T08:27:21.230Z,6.00
2023-05-11T08:29:48.588Z,5.28
2023-05-11T08:32:15.970Z,8.13
2023-05-11T08:34:43.430Z,5.07
2023-05-11T08:37:10.630Z,5.78
2023-05-11T08:39:46.062Z,6.25
2023-05-11T08:42:16.304Z,5.28
2023-05-11T08:44:44.272Z,4.30
2023-05-11T08:47:22.882Z,5.40
2023-05-11T08:49:51.876Z,5.03
2023-05-11T08:52:19.314Z,6.53
2023-05-11T08:54:47.144Z,7.20
2023-05-11T08:57:14.962Z,5.97
2023-05-11T08:59:46.967Z,4.90
2023-05-11T09:02:17.426Z,10.63
2023-05-11T09:04:48.790Z,6.05
2023-05-11T09:07:20.000Z,17.98
2023-05-11T09:09:48.733Z,6.93
2023-05-11T09:12:16.406Z,9.05
2023-05-11T09:14:43.911Z,6.88
2023-05-11T09:17:11.266Z,6.45
2023-05-11T09:19:42.717Z,5.68
2023-05-11T09:22:09.958Z,8.73
2023-05-11T09:24:42.795Z,7.97
2023-05-11T09:27:10.301Z,6.00
2023-05-11T09:29:37.827Z,7.80
2023-05-11T09:32:05.142Z,5.97
2023-05-11T09:34:32.315Z,6.95
2023-05-11T09:36:59.533Z,8.23
2023-05-11T09:39:44.738Z,7.20
2023-05-11T09:42:23.756Z,6.00
2023-05-11T09:44:51.064Z,6.15
2023-05-11T09:47:19.903Z,6.88
2023-05-11T09:49:48.030Z,11.90
2023-05-11T09:52:18.904Z,6.90
2023-05-11T09:54:47.710Z,7.45
2023-05-11T09:57:31.572Z,8.10
2023-05-11T09:59:59.639Z,6.40
2023-05-11T10:02:27.854Z,7.05
2023-05-11T10:04:55.932Z,7.63
2023-05-11T10:07:29.029Z,6.57
2023-05-11T10:09:57.132Z,12.13
2023-05-11T10:12:25.795Z,9.10
2023-05-11T10:14:56.091Z,9.52
2023-05-11T10:17:23.384Z,10.10
2023-05-11T10:19:50.834Z,8.63
2023-05-11T10:22:18.510Z,14.20
2023-05-11T10:24:46.410Z,12.48
2023-05-11T10:27:13.767Z,15.80
2023-05-11T10:29:41.155Z,12.75
2023-05-11T10:32:08.946Z,16.20
2023-05-11T10:34:37.138Z,35.25
2023-05-11T10:37:05.065Z,42.72
2023-05-11T10:39:32.509Z,32.95
2023-05-11T10:42:14.888Z,25.35
2023-05-11T10:44:51.302Z,27.20
2023-05-11T10:47:38.262Z,30.23
2023-05-11T10:50:24.428Z,26.80
2023-05-11T10:55:37.226Z,24.63
2023-05-11T10:58:04.446Z,25.40
2023-05-11T11:00:50.356Z,20.58
2023-05-11T11:03:17.652Z,19.05
2023-05-11T11:05:45.377Z,24.33
2023-05-11T11:08:12.847Z,30.05
2023-05-11T11:10:40.930Z,20.98
2023-05-11T11:13:09.509Z,21.73
2023-05-11T11:15:55.066Z,19.25
2023-05-11T11:18:22.586Z,34.63
2023-05-11T11:20:50.844Z,25.38
2023-05-11T11:23:36.721Z,21.08
2023-05-11T11:26:04.100Z,18.67
2023-05-11T11:28:51.477Z,23.42
2023-05-11T11:31:32.418Z,22.98
2023-05-11T11:34:19.711Z,22.77
2023-05-11T11:36:56.202Z,28.98
2023-05-11T11:39:25.483Z,21.38
2023-05-11T11:42:02.655Z,23.40
2023-05-11T11:44:29.949Z,24.80
2023-05-11T11:47:16.614Z,24.85
2023-05-11T11:49:45.675Z,25.83
2023-05-11T11:52:33.417Z,22.67
2023-05-11T11:55:01.461Z,28.77
2023-05-11T11:57:32.572Z,23.60
2023-05-11T12:00:00.311Z,21.67
2023-05-11T12:02:28.159Z,19.95
2023-05-11T12:05:00.928Z,32.92
2023-05-11T12:07:32.978Z,25.58
2023-05-11T12:10:03.941Z,22.63
2023-05-11T12:12:31.701Z,20.30
2023-05-11T12:14:59.972Z,32.97
2023-05-11T12:17:29.586Z,30.45
2023-05-11T12:20:12.114Z,23.20
2023-05-11T12:22:39.347Z,31.33
2023-05-11T12:25:07.047Z,36.58
2023-05-11T12:27:34.575Z,30.70
2023-05-11T12:30:01.903Z,27.70
2023-05-11T12:32:29.808Z,31.90
2023-05-11T12:35:01.230Z,35.30
2023-05-11T12:37:31.779Z,33.00
2023-05-11T12:39:59.423Z,28.42
2023-05-11T12:42:27.150Z,28.48
2023-05-11T12:44:55.425Z,30.17
2023-05-11T12:47:22.657Z,36.17
2023-05-11T12:49:49.903Z,40.58
2023-05-11T12:52:17.349Z,30.52
2023-05-11T12:54:51.544Z,32.28
2023-05-11T12:57:26.385Z,36.65
2023-05-11T13:00:13.821Z,28.30
2023-05-11T13:02:44.882Z,33.13
2023-05-11T13:05:13.258Z,33.55
2023-05-11T13:07:40.595Z,30.98
2023-05-11T13:10:08.033Z,30.73
2023-05-11T13:12:35.278Z,21.65
2023-05-11T13:15:06.864Z,25.73
2023-05-11T13:17:35.234Z,26.73
2023-05-11T13:20:18.086Z,30.17
2023-05-11T13:22:45.840Z,26.02
2023-05-11T13:25:16.183Z,25.67
2023-05-11T13:27:43.399Z,34.80
2023-05-11T13:30:11.419Z,32.80
2023-05-11T13:32:39.078Z,33.90
2023-05-11T13:35:06.915Z,29.98
2023-05-11T13:37:34.120Z,32.92
2023-05-11T13:40:02.092Z,32.05
2023-05-11T13:42:29.573Z,31.35
2023-05-11T13:44:56.790Z,26.17
2023-05-11T13:47:25.110Z,26.00
2023-05-11T13:49:54.606Z,28.45
2023-05-11T13:52:22.406Z,26.58
2023-05-11T13:54:49.616Z,24.75
2023-05-11T13:57:16.938Z,26.88
2023-05-11T13:59:44.191Z,37.90
2023-05-11T14:02:11.699Z,22.45
2023-05-11T14:04:40.398Z,27.20
2023-05-11T14:07:07.695Z,25.67
2023-05-11T14:09:36.999Z,25.30
2023-05-11T14:12:04.292Z,22.77
2023-05-11T14:14:31.472Z,26.15
2023-05-11T14:16:58.797Z,22.67
2023-05-11T14:19:26.062Z,21.33
2023-05-11T14:21:53.367Z,17.17
2023-05-11T14:24:20.795Z,24.50
2023-05-11T14:26:47.962Z,21.75
2023-05-11T14:29:15.172Z,23.35
2023-05-11T14:31:42.760Z,21.38
2023-05-11T14:34:11.258Z,23.92
2023-05-11T14:36:38.499Z,20.55
2023-05-11T14:39:09.535Z,20.60
2023-05-11T14:41:36.848Z,16.90
2023-05-11T14:44:04.122Z,17.50
2023-05-11T14:46:31.431Z,18.52
2023-05-11T14:48:58.706Z,17.80
2023-05-11T14:51:25.911Z,18.73
2023-05-11T14:53:53.149Z,19.42
2023-05-11T14:56:20.496Z,17.25
2023-05-11T14:58:47.649Z,16.65
2023-05-11T15:01:14.915Z,21.45
2023-05-11T15:03:42.354Z,19.55
2023-05-11T15:06:09.649Z,17.05
2023-05-11T15:08:36.896Z,15.15
2023-05-11T15:11:04.117Z,14.82
2023-05-11T15:13:31.327Z,13.20
2023-05-11T15:15:58.620Z,16.23
2023-05-11T15:18:25.899Z,13.30
2023-05-11T15:20:53.126Z,19.42
2023-05-11T15:23:20.524Z,19.15
2023-05-11T15:25:48.363Z,16.58
2023-05-11T15:28:15.616Z,15.35
2023-05-11T15:30:42.916Z,15.32
2023-05-11T15:33:10.483Z,14.93
2023-05-11T15:35:38.066Z,18.27
2023-05-11T15:38:06.335Z,14.82
2023-05-11T15:40:33.693Z,15.70
2023-05-11T15:43:00.988Z,19.42
2023-05-11T15:45:28.902Z,17.20
2023-05-11T15:47:56.204Z,14.93
2023-05-11T15:50:23.452Z,15.30
2023-05-11T15:52:50.656Z,15.88
2023-05-11T15:55:17.883Z,17.27
2023-05-11T15:57:45.054Z,18.50
2023-05-11T16:00:13.919Z,15.00
2023-05-11T16:02:41.747Z,11.48
2023-05-11T16:05:09.176Z,14.95
2023-05-11T16:07:39.756Z,14.80
2023-05-11T16:10:07.759Z,11.27
2023-05-11T16:12:34.915Z,12.65
2023-05-11T16:15:02.089Z,14.85
2023-05-11T16:17:29.541Z,15.10
2023-05-11T16:19:58.553Z,11.30
2023-05-11T16:22:25.720Z,12.82
2023-05-11T16:24:52.934Z,13.68
2023-05-11T16:27:20.176Z,12.52
2023-05-11T16:29:47.519Z,12.57
2023-05-11T16:32:14.800Z,12.65
2023-05-11T16:34:42.334Z,13.57
2023-05-11T16:37:10.483Z,13.80
2023-05-11T16:39:37.638Z,13.80
2023-05-11T16:42:04.928Z,12.10
2023-05-11T16:44:32.120Z,10.10
2023-05-11T16:47:00.288Z,11.20
2023-05-11T16:49:27.750Z,11.88
2023-05-11T16:51:54.911Z,10.43
2023-05-11T16:54:22.145Z,14.68
2023-05-11T16:56:49.369Z,14.57
2023-05-11T16:59:16.700Z,11.77
2023-05-11T17:01:45.706Z,15.30
2023-05-11T17:04:13.532Z,13.10
2023-05-11T17:06:41.077Z,9.52
2023-05-11T17:09:08.238Z,12.77
2023-05-11T17:11:35.565Z,10.02
2023-05-11T17:14:02.882Z,12.02
2023-05-11T17:16:30.189Z,11.20
2023-05-11T17:18:59.023Z,11.23
2023-05-11T17:21:26.556Z,12.07
2023-05-11T17:23:53.726Z,10.27
2023-05-11T17:26:25.094Z,12.20
2023-05-11T17:28:55.293Z,8.52
2023-05-11T17:31:22.682Z,11.40
2023-05-11T17:33:50.084Z,13.57
2023-05-11T17:36:17.287Z,16.15
2023-05-11T17:38:44.654Z,12.48
2023-05-11T17:41:12.472Z,11.85
2023-05-11T17:43:39.814Z,16.17
2023-05-11T17:46:07.159Z,15.55
2023-05-11T17:48:34.451Z,14.32
2023-05-11T17:51:02.129Z,16.30
2023-05-11T17:53:29.728Z,12.88
2023-05-11T17:56:00.457Z,10.57
2023-05-11T17:58:28.067Z,15.00
2023-05-11T18:00:55.245Z,16.40
2023-05-11T18:03:22.578Z,13.80
2023-05-11T18:05:50.004Z,18.42
2023-05-11T18:08:17.364Z,14.32
2023-05-11T18:10:44.643Z,14.77
2023-05-11T18:13:15.245Z,13.23
2023-05-11T18:15:45.661Z,12.20
2023-05-11T18:18:12.922Z,15.70
2023-05-11T18:20:40.160Z,9.55
2023-05-11T18:23:07.432Z,13.10
2023-05-11T18:25:34.631Z,12.32
2023-05-11T18:28:02.378Z,14.60
2023-05-11T18:30:29.765Z,14.50
2023-05-11T18:32:57.374Z,12.10
2023-05-11T18:35:24.684Z,12.30
2023-05-11T18:37:51.860Z,11.70
2023-05-11T18:40:19.411Z,9.32
2023-05-11T18:42:49.831Z,10.30
2023-05-11T18:45:17.554Z,11.55
2023-05-11T18:47:46.271Z,15.85
2023-05-11T18:50:13.807Z,10.27
2023-05-11T18:52:41.065Z,15.05
2023-05-11T18:55:08.666Z,11.00
2023-05-11T18:57:37.258Z,9.35
2023-05-11T19:00:05.547Z,11.60
2023-05-11T19:02:33.763Z,13.13
2023-05-11T19:05:01.306Z,9.82
2023-05-11T19:07:28.602Z,11.77
2023-05-11T19:09:56.114Z,17.02
2023-05-11T19:12:23.345Z,11.18
2023-05-11T19:14:50.518Z,11.55
2023-05-11T19:17:17.671Z,11.45
2023-05-11T19:19:44.846Z,11.77
2023-05-11T19:22:12.031Z,13.50
2023-05-11T19:24:39.209Z,13.40
2023-05-11T19:27:07.999Z,9.00
2023-05-11T19:29:35.962Z,9.00
2023-05-11T19:32:03.434Z,11.30
2023-05-11T19:34:30.647Z,10.80
2023-05-11T19:36:57.898Z,15.38
2023-05-11T19:39:25.128Z,12.30
2023-05-11T19:41:52.293Z,13.93
2023-05-11T19:44:19.468Z,8.98
2023-05-11T19:46:47.164Z,12.73
2023-05-11T19:49:15.298Z,8.57
2023-05-11T19:51:43.200Z,7.93
2023-05-11T19:54:11.365Z,16.08
2023-05-11T19:56:39.349Z,27.90
2023-05-11T19:59:06.645Z,13.75
2023-05-11T20:01:33.993Z,18.83
2023-05-11T20:04:01.790Z,15.93
2023-05-11T20:06:29.044Z,16.95
2023-05-11T20:08:56.647Z,26.73
2023-05-11T20:11:25.317Z,18.67
2023-05-11T20:13:53.514Z,16.52
2023-05-11T20:16:20.864Z,17.00
2023-05-11T20:18:48.289Z,19.52
2023-05-11T20:21:16.662Z,14.52
2023-05-11T20:23:44.147Z,20.23
2023-05-11T20:26:11.456Z,19.38
2023-05-11T20:28:39.653Z,15.82
2023-05-11T20:31:09.427Z,22.58
2023-05-11T20:36:06.857Z,16.65
2023-05-11T20:38:34.055Z,18.98
2023-05-11T20:41:01.224Z,19.25
2023-05-11T20:43:29.456Z,17.25
2023-05-11T20:46:02.428Z,18.30
2023-05-11T20:48:40.046Z,16.55
2023-05-11T20:51:08.567Z,21.23
2023-05-11T20:53:35.764Z,15.10
2023-05-11T20:56:03.273Z,13.13
2023-05-11T20:58:31.637Z,14.05
2023-05-11T21:00:59.095Z,12.43
2023-05-11T21:03:27.645Z,14.88
2023-05-11T21:05:54.936Z,19.75
2023-05-11T21:08:22.121Z,13.30
2023-05-11T21:10:49.365Z,20.75
2023-05-11T21:13:16.528Z,13.90
2023-05-11T21:15:43.740Z,22.65
2023-05-11T21:18:11.129Z,17.13
2023-05-11T21:20:38.346Z,15.50
2023-05-11T21:23:05.554Z,18.02
2023-05-11T21:25:32.775Z,15.32
2023-05-11T21:28:01.050Z,19.17
2023-05-11T21:30:28.400Z,17.73
2023-05-11T21:32:55.769Z,12.95
2023-05-11T21:35:23.017Z,13.20
2023-05-11T21:37:50.277Z,15.85
2023-05-11T21:40:18.177Z,14.95
2023-05-11T21:42:46.248Z,13.82
2023-05-11T21:45:13.471Z,11.43
2023-05-11T21:47:40.711Z,15.68
2023-05-11T21:50:08.785Z,15.80
2023-05-11T21:52:36.107Z,12.93
2023-05-11T21:55:03.324Z,13.13
2023-05-11T21:57:30.546Z,17.02
2023-05-11T21:59:57.722Z,15.30
2023-05-11T22:02:24.875Z,17.90
2023-05-11T22:04:52.116Z,16.40
2023-05-11T22:07:19.968Z,19.27
2023-05-11T22:09:47.181Z,15.50
2023-05-11T22:12:14.600Z,18.05
2023-05-11T22:14:41.909Z,20.20
2023-05-11T22:17:09.102Z,19.95
2023-05-11T22:19:36.304Z,14.70
2023-05-11T22:22:03.830Z,13.65
2023-05-11T22:24:31.383Z,22.50
2023-05-11T22:26:59.397Z,17.20
2023-05-11T22:29:26.594Z,15.88
2023-05-11T22:31:53.934Z,12.55
2023-05-11T22:34:21.394Z,16.45
2023-05-11T22:36:48.656Z,19.33
2023-05-11T22:39:16.073Z,18.42
2023-05-11T22:41:43.265Z,17.55
2023-05-11T22:44:10.731Z,11.38
2023-05-11T22:46:37.941Z,10.93
2023-05-11T22:49:05.099Z,14.48
2023-05-11T22:51:32.505Z,11.23
2023-05-11T22:53:59.674Z,13.32
2023-05-11T22:56:27.146Z,12.32
2023-05-11T22:58:55.961Z,10.38
2023-05-11T23:01:23.210Z,14.13
2023-05-11T23:03:50.444Z,12.40
2023-05-11T23:06:17.885Z,15.57
2023-05-11T23:08:45.078Z,11.35
2023-05-11T23:11:12.870Z,11.23
2023-05-11T23:13:41.048Z,11.30
2023-05-11T23:16:10.064Z,10.50
2023-05-11T23:18:37.898Z,9.88
2023-05-11T23:21:05.346Z,13.13
2023-05-11T23:23:32.824Z,13.20
2023-05-11T23:25:59.998Z,11.25
2023-05-11T23:28:27.282Z,12.18
2023-05-11T23:30:54.550Z,10.32
2023-05-11T23:33:21.808Z,10.30
2023-05-11T23:35:49.040Z,10.30
2023-05-11T23:38:16.792Z,10.02
2023-05-11T23:40:43.983Z,12.43
2023-05-11T23:43:11.166Z,9.32
2023-05-11T23:45:38.339Z,9.63
2023-05-11T23:48:05.726Z,11.10
2023-05-11T23:50:32.913Z,8.07
2023-05-11T23:53:00.063Z,9.15
2023-05-11T23:55:27.266Z,9.13
2023-05-11T23:57:55.792Z,10.82
